Time;durP1;ratioP1;P1;durP2;ratioP2;P2;SDS_P1;SDS_P2;PMS_P1;PMS_P2;Temp;Humidity;BMP_temperature;BMP_pressure;BME280_temperature;BME280_humidity;BME280_pressure;Samples;Min_cycle;Max_cycle;Signal;HPM_P1;HPM_P2
2022/06/24 00:00:07;;;;;;;5.63;1.80;;;19.60;99.90;;;;;;4990816;28;20183;-30
2022/06/24 00:02:33;;;;;;;4.82;1.98;;;19.60;99.90;;;;;;4991542;28;20178;-31
2022/06/24 00:05:01;;;;;;;6.35;2.15;;;19.70;99.90;;;;;;4973777;28;20278;-29
2022/06/24 00:07:27;;;;;;;5.32;1.75;;;19.70;99.90;;;;;;4973877;28;20235;-33
2022/06/24 00:09:53;;;;;;;4.63;1.77;;;19.70;99.90;;;;;;4991404;28;20199;-30
2022/06/24 00:12:21;;;;;;;6.65;1.85;;;19.70;99.90;;;;;;4973861;28;20180;-30
2022/06/24 00:15:00;;;;;;;5.05;1.70;;;19.70;99.90;;;;;;4973448;28;20230;-29
2022/06/24 00:17:28;;;;;;;4.32;1.77;;;19.60;99.90;;;;;;4991066;28;20298;-30
2022/06/24 00:20:17;;;;;;;4.70;1.75;;;19.70;99.90;;;;;;4970549;28;20212;-31
2022/06/24 00:22:51;;;;;;;4.15;1.80;;;19.70;99.90;;;;;;4972166;28;20177;-31
2022/06/24 00:25:25;;;;;;;4.85;1.92;;;19.70;99.90;;;;;;4982232;28;20195;-31
2022/06/24 00:28:03;;;;;;;5.28;1.80;;;19.70;99.90;;;;;;4994646;28;20206;-31
2022/06/24 00:30:34;;;;;;;3.92;2.03;;;19.60;99.90;;;;;;4976307;28;20179;-30
2022/06/24 00:33:21;;;;;;;5.63;2.13;;;19.60;99.90;;;;;;4976261;28;20176;-30
2022/06/24 00:35:48;;;;;;;4.57;2.10;;;19.60;99.90;;;;;;4994282;28;20204;-30
2022/06/24 00:38:31;;;;;;;5.47;2.10;;;19.70;99.90;;;;;;4993601;28;20208;-30
2022/06/24 00:41:10;;;;;;;4.45;2.00;;;19.70;99.90;;;;;;4961005;28;20184;-31
2022/06/24 00:43:37;;;;;;;4.50;1.70;;;19.70;99.90;;;;;;4960847;28;20229;-31
2022/06/24 00:46:23;;;;;;;6.03;1.88;;;19.60;99.90;;;;;;4977051;28;20218;-30
2022/06/24 00:48:57;;;;;;;5.60;1.80;;;19.60;99.90;;;;;;4966886;28;20204;-30
2022/06/24 00:51:36;;;;;;;4.93;2.00;;;19.50;99.90;;;;;;4977153;28;20190;-30
2022/06/24 00:54:08;;;;;;;6.10;1.90;;;19.40;99.90;;;;;;4976789;28;20206;-31
2022/06/24 00:56:35;;;;;;;3.97;1.80;;;19.40;99.90;;;;;;4975488;28;20209;-31
2022/06/24 00:59:05;;;;;;;4.70;2.00;;;19.40;99.90;;;;;;4973765;28;20339;-32
2022/06/24 01:01:36;;;;;;;2.90;1.90;;;19.30;99.90;;;;;;4953207;28;20183;-32
2022/06/24 01:04:07;;;;;;;4.85;1.98;;;19.20;99.90;;;;;;4994333;28;20226;-32
2022/06/24 01:06:34;;;;;;;4.57;2.05;;;19.10;99.90;;;;;;4976761;28;20332;-32
2022/06/24 01:09:00;;;;;;;5.43;2.30;;;19.10;99.90;;;;;;4973490;28;20188;-32
2022/06/24 01:11:41;;;;;;;2.88;1.75;;;19.10;99.90;;;;;;4957529;28;20319;-32
2022/06/24 01:14:07;;;;;;;3.80;2.30;;;18.90;99.90;;;;;;4957268;28;20422;-31
2022/06/24 01:16:34;;;;;;;3.90;2.08;;;18.90;99.90;;;;;;4957409;28;20213;-31
2022/06/24 01:19:03;;;;;;;3.28;2.03;;;19.00;99.90;;;;;;4961328;28;20183;-32
2022/06/24 01:21:37;;;;;;;3.97;2.08;;;19.10;99.90;;;;;;4976477;28;20601;-32
2022/06/24 01:24:04;;;;;;;4.82;2.00;;;19.20;99.90;;;;;;4959854;28;20231;-32
2022/06/24 01:26:30;;;;;;;4.00;2.15;;;19.20;99.90;;;;;;4973165;28;20212;-31
2022/06/24 01:28:55;;;;;;;4.57;2.15;;;19.20;99.90;;;;;;4958042;28;20189;-32
2022/06/24 01:31:21;;;;;;;9.00;2.55;;;19.20;99.90;;;;;;4972914;28;20181;-31
2022/06/24 01:33:47;;;;;;;6.82;2.08;;;19.20;99.90;;;;;;4957152;28;20187;-32
2022/06/24 01:36:13;;;;;;;4.82;1.95;;;19.20;99.90;;;;;;4955305;28;20216;-32
2022/06/24 01:38:39;;;;;;;5.80;2.40;;;19.20;99.90;;;;;;4957055;28;20169;-32
2022/06/24 01:41:05;;;;;;;8.27;1.98;;;19.10;99.90;;;;;;4957202;28;20177;-31
2022/06/24 01:43:31;;;;;;;6.20;2.05;;;19.10;99.90;;;;;;4956862;28;20181;-32
2022/06/24 01:45:57;;;;;;;7.05;2.35;;;19.10;99.90;;;;;;4940452;28;20204;-31
2022/06/24 01:48:23;;;;;;;4.75;1.98;;;19.10;99.90;;;;;;4974185;28;20188;-32
2022/06/24 01:50:49;;;;;;;6.05;2.50;;;19.10;99.90;;;;;;4972473;28;20187;-32
2022/06/24 01:53:15;;;;;;;4.55;1.80;;;19.10;99.90;;;;;;4976154;28;20298;-32
2022/06/24 01:55:40;;;;;;;3.72;1.90;;;19.00;99.90;;;;;;4975605;28;20196;-31
2022/06/24 01:58:06;;;;;;;5.32;2.30;;;19.10;99.90;;;;;;4976011;28;20192;-31
2022/06/24 02:00:32;;;;;;;6.78;2.35;;;19.00;99.90;;;;;;4991818;28;20186;-32
2022/06/24 02:02:58;;;;;;;6.43;2.13;;;19.00;99.90;;;;;;4975883;28;20807;-31
2022/06/24 02:05:26;;;;;;;4.60;1.88;;;18.90;99.90;;;;;;4993328;28;20187;-31
2022/06/24 02:07:52;;;;;;;6.53;2.10;;;18.90;99.90;;;;;;4993183;28;20207;-31
2022/06/24 02:15:46;;;;;;;6.32;2.03;;;18.80;99.90;;;;;;4982889;28;20176;-32
2022/06/24 02:18:12;;;;;;;2.78;1.90;;;18.80;99.90;;;;;;4975663;28;20187;-32
2022/06/24 02:20:38;;;;;;;6.38;1.77;;;18.70;99.90;;;;;;4971935;28;20211;-32
2022/06/24 02:23:04;;;;;;;4.82;2.08;;;18.60;99.90;;;;;;4956352;28;20185;-31
2022/06/24 02:25:30;;;;;;;8.07;2.10;;;18.60;99.90;;;;;;4971131;28;20266;-32
2022/06/24 02:27:56;;;;;;;6.07;2.40;;;18.60;99.90;;;;;;4988386;28;20267;-31
2022/06/24 02:30:21;;;;;;;4.57;2.13;;;18.50;99.90;;;;;;4975351;28;20180;-32
2022/06/24 02:32:47;;;;;;;3.72;1.60;;;18.50;99.90;;;;;;4975137;28;20179;-31
2022/06/24 02:35:13;;;;;;;5.10;2.33;;;18.40;99.90;;;;;;4975214;28;20184;-32
2022/06/24 02:37:39;;;;;;;6.55;2.17;;;18.30;99.90;;;;;;4959239;28;20216;-31
2022/06/24 02:42:57;;;;;;;5.40;1.88;;;18.30;99.90;;;;;;4956070;28;20184;-32
2022/06/24 02:45:23;;;;;;;5.13;2.58;;;18.30;99.90;;;;;;4955675;28;20188;-31
2022/06/24 02:47:49;;;;;;;4.78;2.20;;;18.30;99.90;;;;;;4955332;28;20351;-31
2022/06/24 02:50:16;;;;;;;6.07;2.15;;;18.20;99.90;;;;;;4963743;28;20188;-31
2022/06/24 02:52:42;;;;;;;2.90;1.88;;;18.10;99.90;;;;;;4974999;28;20184;-31
2022/06/24 02:55:08;;;;;;;3.30;1.85;;;18.00;99.90;;;;;;4974825;28;20196;-31
2022/06/24 02:57:34;;;;;;;4.63;2.60;;;17.90;99.90;;;;;;4974621;28;20224;-31
2022/06/24 03:00:00;;;;;;;4.25;1.92;;;17.80;99.90;;;;;;4974391;28;20183;-32
2022/06/24 03:02:26;;;;;;;6.35;2.35;;;17.80;99.90;;;;;;4974985;28;20180;-31
2022/06/24 03:04:52;;;;;;;5.88;2.70;;;17.70;99.90;;;;;;4991874;28;20183;-32
2022/06/24 03:07:17;;;;;;;4.63;2.42;;;17.70;99.90;;;;;;4958417;28;20204;-31
2022/06/24 03:09:43;;;;;;;5.40;2.27;;;17.70;99.90;;;;;;4991738;28;20180;-32
2022/06/24 03:12:09;;;;;;;8.63;2.40;;;17.70;99.90;;;;;;4974713;28;20254;-31
2022/06/24 03:14:35;;;;;;;7.83;2.27;;;17.70;99.90;;;;;;4973586;28;20187;-32
2022/06/24 03:17:01;;;;;;;6.57;2.63;;;17.60;99.90;;;;;;4974195;28;20215;-32
2022/06/24 03:19:27;;;;;;;4.73;2.80;;;17.60;99.90;;;;;;4974156;28;20187;-32
2022/06/24 03:21:53;;;;;;;3.63;2.60;;;17.50;99.90;;;;;;4970903;28;20192;-32
2022/06/24 03:24:19;;;;;;;5.63;2.92;;;17.50;99.90;;;;;;4956507;28;20189;-31
2022/06/24 03:26:44;;;;;;;5.33;2.43;;;17.50;99.90;;;;;;4990507;28;20199;-31
2022/06/24 03:29:10;;;;;;;3.50;2.40;;;17.50;99.90;;;;;;4990124;28;20191;-31
2022/06/24 03:31:36;;;;;;;3.73;2.27;;;17.40;99.90;;;;;;4974247;28;20176;-31
2022/06/24 03:34:02;;;;;;;4.07;2.20;;;17.30;99.90;;;;;;4974225;28;20180;-29
2022/06/24 03:36:28;;;;;;;4.13;2.50;;;17.30;99.90;;;;;;4973831;28;20266;-30
2022/06/24 03:38:54;;;;;;;5.83;2.30;;;17.40;99.90;;;;;;4974047;28;20176;-30
2022/06/24 03:41:19;;;;;;;3.92;2.50;;;17.50;99.90;;;;;;4970818;28;20204;-29
2022/06/24 03:43:45;;;;;;;6.47;2.63;;;17.60;99.90;;;;;;4954804;28;20291;-31
2022/06/24 03:46:11;;;;;;;5.77;2.40;;;17.70;99.90;;;;;;4972198;28;20713;-29
2022/06/24 03:48:37;;;;;;;4.25;2.58;;;17.60;99.90;;;;;;4954805;28;20179;-30
2022/06/24 03:51:03;;;;;;;3.50;2.25;;;17.60;99.90;;;;;;4970775;28;20180;-30
2022/06/24 03:53:31;;;;;;;2.65;2.20;;;17.60;99.90;;;;;;4957222;28;20198;-31
2022/06/24 03:55:57;;;;;;;6.13;2.23;;;17.60;99.90;;;;;;4973277;28;20229;-31
2022/06/24 03:58:22;;;;;;;3.40;2.43;;;17.50;99.90;;;;;;4973237;28;20172;-31
2022/06/24 04:00:48;;;;;;;5.40;2.37;;;17.50;99.90;;;;;;4973113;28;20176;-30
2022/06/24 04:03:14;;;;;;;4.83;2.53;;;17.50;99.90;;;;;;4973378;28;20180;-29
2022/06/24 04:05:40;;;;;;;3.20;2.20;;;17.40;99.90;;;;;;4956933;28;20180;-30
2022/06/24 04:08:07;;;;;;;2.70;2.27;;;17.40;99.90;;;;;;4957778;28;20187;-31
2022/06/24 04:10:33;;;;;;;3.30;2.00;;;17.40;99.90;;;;;;4989300;28;20203;-31
2022/06/24 04:12:59;;;;;;;2.67;2.20;;;17.40;99.90;;;;;;4974074;28;20207;-29
2022/06/24 04:15:25;;;;;;;3.20;1.83;;;17.30;99.90;;;;;;4957739;28;20252;-31
2022/06/24 04:17:50;;;;;;;2.63;2.10;;;17.40;99.90;;;;;;4973295;28;20211;-30
2022/06/24 04:20:17;;;;;;;2.23;2.03;;;17.40;99.90;;;;;;4973411;28;20203;-31
2022/06/24 04:22:44;;;;;;;2.53;2.00;;;17.40;99.90;;;;;;4973670;28;20212;-29
2022/06/24 04:25:10;;;;;;;4.23;2.07;;;17.50;99.90;;;;;;4973499;28;20191;-30
2022/06/24 04:27:37;;;;;;;3.22;2.30;;;17.60;99.90;;;;;;4973708;28;20199;-30
2022/06/24 04:30:08;;;;;;;4.32;3.05;;;17.60;99.90;;;;;;4972958;28;20183;-29
2022/06/24 04:32:34;;;;;;;5.35;2.40;;;17.70;99.90;;;;;;4957568;28;20195;-31
2022/06/24 04:35:00;;;;;;;4.18;2.40;;;17.80;99.90;;;;;;4989672;28;20180;-30
2022/06/24 04:37:27;;;;;;;6.65;2.75;;;17.80;99.90;;;;;;4989283;28;20254;-30
2022/06/24 04:39:53;;;;;;;4.28;2.53;;;17.90;99.90;;;;;;4971807;28;20185;-29
2022/06/24 04:42:18;;;;;;;6.68;3.05;;;17.90;99.90;;;;;;4972320;28;20191;-29
2022/06/24 04:44:46;;;;;;;4.95;2.97;;;18.00;99.90;;;;;;4956516;28;20184;-29
2022/06/24 04:47:15;;;;;;;6.57;2.75;;;18.00;99.90;;;;;;4990262;28;20212;-30
2022/06/24 04:49:41;;;;;;;4.32;2.80;;;18.10;99.90;;;;;;4990528;28;20255;-32
2022/06/24 04:52:07;;;;;;;5.95;2.85;;;18.10;99.90;;;;;;4956839;28;20270;-30
2022/06/24 04:54:33;;;;;;;9.07;3.30;;;18.10;99.90;;;;;;4955632;28;20206;-30
2022/06/24 04:57:00;;;;;;;8.63;3.22;;;18.10;99.90;;;;;;4975453;28;20273;-30
2022/06/24 04:59:26;;;;;;;7.10;2.75;;;18.20;99.90;;;;;;4977865;28;20168;-32
2022/06/24 05:01:52;;;;;;;6.22;2.65;;;18.30;99.90;;;;;;4955820;28;20176;-31
2022/06/24 05:04:18;;;;;;;7.88;3.00;;;18.30;99.90;;;;;;4972996;28;20180;-30
2022/06/24 05:06:43;;;;;;;3.92;2.65;;;18.30;99.90;;;;;;4954147;28;20207;-31
2022/06/24 05:09:09;;;;;;;5.60;2.90;;;18.50;99.90;;;;;;4971727;28;20185;-32
2022/06/24 05:11:35;;;;;;;7.15;3.08;;;18.50;99.90;;;;;;4974043;28;20191;-31
2022/06/24 05:14:01;;;;;;;6.95;3.20;;;18.50;99.90;;;;;;4977039;28;20193;-30
2022/06/24 05:16:27;;;;;;;6.60;2.75;;;18.60;99.90;;;;;;4979717;28;20301;-33
2022/06/24 05:18:53;;;;;;;7.43;2.95;;;18.60;99.90;;;;;;5012197;28;20171;-31
2022/06/24 05:21:18;;;;;;;8.20;3.20;;;18.70;99.90;;;;;;4976475;28;20175;-30
2022/06/24 05:23:44;;;;;;;8.90;3.03;;;18.70;99.90;;;;;;4976713;28;20184;-31
2022/06/24 05:26:10;;;;;;;7.47;2.67;;;18.80;99.90;;;;;;4960764;28;20216;-30
2022/06/24 05:28:36;;;;;;;5.90;2.80;;;18.80;99.90;;;;;;4976453;28;20184;-31
2022/06/24 05:31:02;;;;;;;7.68;2.78;;;18.90;99.90;;;;;;4960091;28;20185;-31
2022/06/24 05:33:30;;;;;;;5.47;2.70;;;18.90;99.90;;;;;;4973343;28;20185;-31
2022/06/24 05:35:58;;;;;;;6.03;2.60;;;19.00;99.90;;;;;;4956651;28;20242;-31
2022/06/24 05:38:24;;;;;;;8.38;3.05;;;19.10;99.90;;;;;;4975760;28;20649;-31
2022/06/24 05:40:51;;;;;;;5.28;2.47;;;19.20;99.90;;;;;;4976374;28;20278;-30
2022/06/24 05:43:18;;;;;;;5.55;2.42;;;19.20;99.90;;;;;;4975622;28;20216;-30
2022/06/24 05:45:45;;;;;;;4.40;2.47;;;19.30;99.90;;;;;;4992232;28;20200;-30
2022/06/24 05:48:11;;;;;;;5.78;2.47;;;19.40;99.90;;;;;;4976476;28;20172;-31
2022/06/24 05:50:38;;;;;;;7.70;2.80;;;19.40;99.90;;;;;;4960180;28;20192;-29
2022/06/24 05:55:50;;;;;;;7.30;2.80;;;19.60;99.90;;;;;;4992685;28;20240;-31
2022/06/24 05:58:16;;;;;;;7.65;3.00;;;19.80;99.90;;;;;;4975784;28;20270;-29
2022/06/24 06:00:43;;;;;;;6.47;2.72;;;20.00;99.90;;;;;;4992314;28;20239;-31
2022/06/24 06:03:08;;;;;;;6.40;2.60;;;20.10;99.90;;;;;;4975566;28;20246;-31
2022/06/24 06:05:34;;;;;;;6.82;2.78;;;20.20;99.90;;;;;;4974598;28;20195;-29
2022/06/24 06:08:00;;;;;;;5.47;2.42;;;20.30;99.90;;;;;;4977214;28;20255;-29
2022/06/24 06:10:26;;;;;;;6.25;2.50;;;20.30;99.90;;;;;;4977108;28;20184;-31
2022/06/24 06:12:52;;;;;;;5.95;2.60;;;20.40;99.90;;;;;;4993228;28;20184;-29
2022/06/24 06:15:17;;;;;;;7.28;2.70;;;20.60;99.90;;;;;;4974985;28;20672;-30
2022/06/24 06:17:44;;;;;;;5.82;3.00;;;20.70;99.90;;;;;;4975672;28;20236;-32
2022/06/24 06:20:11;;;;;;;6.88;2.97;;;20.90;99.90;;;;;;4993045;28;20176;-32
2022/06/24 06:22:39;;;;;;;5.40;2.25;;;21.10;99.90;;;;;;4974155;28;20180;-30
2022/06/24 06:25:05;;;;;;;8.05;2.70;;;21.30;99.90;;;;;;4959180;28;20259;-30
2022/06/24 06:27:30;;;;;;;4.35;2.33;;;21.40;99.90;;;;;;4991677;28;20214;-30
2022/06/24 06:29:57;;;;;;;5.28;2.58;;;21.60;99.90;;;;;;4993060;28;20176;-31
2022/06/24 06:32:23;;;;;;;5.75;2.90;;;21.70;99.90;;;;;;4991690;28;20738;-29
2022/06/24 06:34:50;;;;;;;5.53;2.40;;;21.70;99.90;;;;;;4975304;28;20192;-30
2022/06/24 06:37:16;;;;;;;8.27;2.60;;;21.80;99.90;;;;;;4992784;28;20219;-30
2022/06/24 06:39:41;;;;;;;7.82;2.88;;;21.90;99.90;;;;;;4975301;28;20191;-31
2022/06/24 06:42:07;;;;;;;4.68;2.20;;;22.00;99.90;;;;;;4975478;28;20254;-31
2022/06/24 06:44:43;;;;;;;5.47;2.40;;;22.10;99.90;;;;;;4991123;28;20191;-30
2022/06/24 06:47:09;;;;;;;5.85;2.40;;;22.20;99.90;;;;;;4975013;28;20212;-30
2022/06/24 06:49:35;;;;;;;4.93;2.22;;;22.30;99.90;;;;;;4975183;28;20188;-31
2022/06/24 06:52:01;;;;;;;4.97;2.10;;;22.50;99.90;;;;;;4975224;28;20191;-32
2022/06/24 06:54:27;;;;;;;6.63;2.38;;;22.70;99.90;;;;;;4974599;28;20176;-30
2022/06/24 06:59:34;;;;;;;5.72;2.40;;;23.00;99.90;;;;;;5087038;23;20237;-36
2022/06/24 07:02:00;;;;;;;5.40;2.17;;;23.20;99.90;;;;;;4994347;28;20183;-37
2022/06/24 07:04:26;;;;;;;5.47;2.78;;;23.40;99.90;;;;;;4994059;28;20181;-37
2022/06/24 07:06:53;;;;;;;6.30;2.80;;;23.60;99.90;;;;;;4994065;28;20199;-37
2022/06/24 07:09:19;;;;;;;5.65;2.55;;;23.70;99.90;;;;;;5011919;28;20183;-39
2022/06/24 07:11:45;;;;;;;5.55;2.33;;;23.60;99.90;;;;;;4994245;28;20179;-38
2022/06/24 07:14:11;;;;;;;5.43;2.47;;;23.60;99.90;;;;;;4993986;28;20261;-36
2022/06/24 07:16:37;;;;;;;6.22;2.05;;;23.70;99.90;;;;;;4993522;28;20214;-36
2022/06/24 07:19:03;;;;;;;6.07;2.60;;;23.80;99.90;;;;;;4994115;28;20179;-36
2022/06/24 07:21:29;;;;;;;7.82;2.50;;;23.70;99.90;;;;;;4994049;28;20175;-37
2022/06/24 07:23:55;;;;;;;3.75;2.38;;;23.60;99.90;;;;;;4993904;28;20262;-37
2022/06/24 07:26:21;;;;;;;4.03;2.30;;;23.50;99.90;;;;;;4994320;28;20215;-36
2022/06/24 07:28:46;;;;;;;5.80;2.13;;;23.40;99.90;;;;;;4996200;28;20269;-35
2022/06/24 07:31:19;;;;;;;4.05;1.92;;;23.40;99.90;;;;;;5012753;28;20190;-37
2022/06/24 07:33:46;;;;;;;4.38;2.15;;;23.30;99.90;;;;;;4993306;28;20222;-39
2022/06/24 07:36:12;;;;;;;4.50;2.17;;;23.30;99.90;;;;;;4992990;28;20214;-37
2022/06/24 07:38:38;;;;;;;6.30;2.05;;;23.30;99.90;;;;;;4993569;28;20179;-38
2022/06/24 07:41:04;;;;;;;5.22;2.10;;;23.30;99.90;;;;;;4993552;28;20175;-38
2022/06/24 07:43:31;;;;;;;3.22;2.08;;;23.20;99.90;;;;;;4993492;28;20175;-38
2022/06/24 07:45:57;;;;;;;5.75;2.15;;;23.10;99.90;;;;;;4993189;28;20175;-37
2022/06/24 07:48:23;;;;;;;3.63;2.00;;;23.20;99.90;;;;;;4993911;28;20171;-37
2022/06/24 07:50:49;;;;;;;4.65;2.13;;;23.30;99.90;;;;;;4993589;28;20190;-36
2022/06/24 07:53:15;;;;;;;4.03;2.10;;;23.30;99.90;;;;;;4993648;28;20210;-36
2022/06/24 07:58:25;;;;;;;5.70;2.42;;;23.30;99.90;;;;;;4993234;28;20198;-38
2022/06/24 08:00:51;;;;;;;4.03;2.40;;;23.60;99.90;;;;;;4993068;28;20198;-36
2022/06/24 08:03:17;;;;;;;7.05;2.50;;;23.70;99.90;;;;;;4993251;28;20274;-36
2022/06/24 08:05:43;;;;;;;6.43;1.90;;;23.80;99.90;;;;;;4992335;28;20257;-37
2022/06/24 08:08:10;;;;;;;3.17;1.88;;;23.70;99.90;;;;;;4992463;28;20207;-42
2022/06/24 08:10:38;;;;;;;6.28;1.85;;;23.60;99.90;;;;;;4992481;28;20261;-37
2022/06/24 08:13:05;;;;;;;4.60;2.35;;;23.60;99.90;;;;;;4985827;28;20314;-38
2022/06/24 08:15:32;;;;;;;4.65;2.03;;;23.80;99.90;;;;;;4992972;28;20644;-37
2022/06/24 08:17:58;;;;;;;6.55;5.30;;;23.80;99.90;;;;;;4976537;28;20211;-39
2022/06/24 08:20:24;;;;;;;3.92;1.70;;;23.90;99.90;;;;;;4993016;28;20305;-40
2022/06/24 08:22:50;;;;;;;2.72;1.67;;;23.80;99.90;;;;;;4992815;28;20365;-37
2022/06/24 08:25:17;;;;;;;3.50;1.60;;;23.90;99.90;;;;;;4992420;28;20237;-38
2022/06/24 08:27:43;;;;;;;2.17;1.55;;;24.10;99.90;;;;;;4981073;28;20219;-40
2022/06/24 08:30:10;;;;;;;4.13;1.77;;;24.30;99.90;;;;;;4992906;28;20187;-38
2022/06/24 08:32:36;;;;;;;5.55;1.60;;;24.40;99.90;;;;;;4993055;28;20194;-37
2022/06/24 08:35:02;;;;;;;4.38;1.48;;;24.50;99.90;;;;;;4976799;28;20209;-36
2022/06/24 08:37:28;;;;;;;3.17;1.80;;;24.80;99.90;;;;;;4993215;28;20203;-38
2022/06/24 08:39:54;;;;;;;2.60;1.80;;;24.70;99.90;;;;;;4992135;28;20171;-37
2022/06/24 08:42:26;;;;;;;5.95;1.90;;;25.00;99.90;;;;;;4974093;28;20184;-42
2022/06/24 08:44:52;;;;;;;4.03;1.58;;;25.30;99.90;;;;;;4975471;28;20179;-39
2022/06/24 08:47:18;;;;;;;2.20;1.75;;;25.40;99.90;;;;;;4977869;28;20208;-37
2022/06/24 08:49:44;;;;;;;3.17;1.73;;;25.50;99.90;;;;;;4977419;28;20195;-36
2022/06/24 08:52:12;;;;;;;5.07;2.20;;;25.70;99.90;;;;;;4977521;28;20749;-38
2022/06/24 08:54:43;;;;;;;3.80;1.90;;;25.90;99.90;;;;;;4980872;28;20195;-38
2022/06/24 08:57:10;;;;;;;6.22;1.90;;;25.90;99.90;;;;;;4996555;28;20238;-39
2022/06/24 08:59:36;;;;;;;5.55;1.60;;;26.00;99.90;;;;;;4996473;28;20210;-38
2022/06/24 09:02:02;;;;;;;3.25;2.05;;;26.10;99.90;;;;;;5014158;28;20183;-40
2022/06/24 09:04:28;;;;;;;4.32;1.70;;;25.80;99.90;;;;;;4996338;28;20179;-38
2022/06/24 09:06:54;;;;;;;2.67;1.90;;;25.80;99.90;;;;;;4996546;28;20222;-36
2022/06/24 09:09:24;;;;;;;4.53;1.80;;;25.70;99.90;;;;;;4996280;28;20183;-38
2022/06/24 09:11:57;;;;;;;2.55;1.60;;;25.20;99.90;;;;;;4996207;28;20198;-37
2022/06/24 09:14:43;;;;;;;5.85;2.38;;;24.90;99.90;;;;;;4996236;28;20325;-40
2022/06/24 09:17:10;;;;;;;2.47;1.88;;;25.10;99.90;;;;;;4996116;28;20215;-39
2022/06/24 09:19:36;;;;;;;3.35;1.70;;;25.30;99.90;;;;;;4996381;28;20192;-39
2022/06/24 09:22:03;;;;;;;3.03;1.98;;;25.30;99.90;;;;;;5013973;28;20179;-38
2022/06/24 09:24:47;;;;;;;4.85;1.88;;;25.50;99.90;;;;;;4979076;28;20190;-36
2022/06/24 09:27:14;;;;;;;2.97;1.73;;;25.60;99.90;;;;;;4996335;28;20235;-37
2022/06/24 09:29:49;;;;;;;2.88;1.67;;;25.70;99.90;;;;;;4996821;28;20278;-39
2022/06/24 09:32:16;;;;;;;4.15;1.80;;;25.90;99.90;;;;;;4996042;28;20206;-37
2022/06/24 09:35:02;;;;;;;2.78;1.73;;;26.10;99.90;;;;;;5013315;28;20179;-37
2022/06/24 09:37:43;;;;;;;2.30;1.77;;;26.30;99.90;;;;;;4979534;28;20235;-37
2022/06/24 09:40:28;;;;;;;3.35;1.90;;;26.40;99.90;;;;;;4995997;28;20186;-36
2022/06/24 09:43:06;;;;;;;3.10;1.52;;;26.50;99.90;;;;;;4996007;28;20182;-37
2022/06/24 09:45:52;;;;;;;3.72;1.80;;;26.40;99.90;;;;;;4995532;28;20254;-37
2022/06/24 09:48:33;;;;;;;2.80;1.80;;;26.30;99.90;;;;;;4971372;28;20183;-39
2022/06/24 09:51:02;;;;;;;3.88;1.90;;;26.40;99.90;;;;;;4995144;28;20203;-38
2022/06/24 09:53:39;;;;;;;4.07;1.73;;;26.40;99.90;;;;;;4978616;28;20212;-37
2022/06/24 09:56:08;;;;;;;3.33;1.60;;;26.40;99.90;;;;;;4997766;28;20198;-36
2022/06/24 09:58:38;;;;;;;1.98;1.38;;;26.30;99.90;;;;;;5015512;28;20203;-36
2022/06/24 10:01:05;;;;;;;3.67;1.58;;;26.20;99.90;;;;;;4982280;28;20266;-36
2022/06/24 10:03:34;;;;;;;3.28;1.50;;;26.30;99.90;;;;;;4996492;28;20176;-37
2022/06/24 10:06:03;;;;;;;2.95;1.63;;;26.40;99.90;;;;;;4981766;28;20175;-35
2022/06/24 10:08:34;;;;;;;2.00;1.67;;;26.70;99.90;;;;;;5005866;28;20183;-36
2022/06/24 10:11:06;;;;;;;2.50;1.75;;;27.00;99.90;;;;;;4997571;28;20191;-37
2022/06/24 10:13:35;;;;;;;3.35;1.60;;;27.00;99.90;;;;;;4992833;28;20182;-36
2022/06/24 10:16:03;;;;;;;2.88;1.67;;;27.00;99.90;;;;;;5014355;28;20218;-36
2022/06/24 10:18:46;;;;;;;2.08;1.60;;;26.90;99.90;;;;;;5003142;28;20202;-37
2022/06/24 10:21:13;;;;;;;2.95;1.50;;;26.80;99.90;;;;;;4995376;28;20175;-39
2022/06/24 10:23:40;;;;;;;2.58;1.58;;;26.90;99.90;;;;;;5011230;28;20179;-37
2022/06/24 10:26:12;;;;;;;1.88;1.70;;;27.10;99.90;;;;;;4998575;28;20274;-36
2022/06/24 10:29:03;;;;;;;3.67;1.92;;;27.00;99.90;;;;;;4998688;28;20172;-37
2022/06/24 10:31:48;;;;;;;4.93;2.00;;;27.20;99.90;;;;;;4983872;28;20257;-36
2022/06/24 10:34:22;;;;;;;2.95;1.63;;;27.20;99.90;;;;;;5001255;28;20175;-37
2022/06/24 10:36:54;;;;;;;2.75;1.77;;;27.10;99.90;;;;;;4981582;28;20211;-35
2022/06/24 10:39:24;;;;;;;3.63;1.48;;;26.90;99.90;;;;;;4994566;28;20175;-35
2022/06/24 10:42:04;;;;;;;2.90;1.42;;;26.80;99.90;;;;;;4978654;28;20214;-36
2022/06/24 10:44:31;;;;;;;2.53;1.33;;;26.80;99.90;;;;;;4994519;28;20175;-38
2022/06/24 10:47:12;;;;;;;4.25;1.67;;;26.70;99.90;;;;;;4994577;28;20214;-35
2022/06/24 10:49:56;;;;;;;2.33;1.45;;;26.70;99.90;;;;;;4978576;28;20183;-36
2022/06/24 10:52:34;;;;;;;3.22;1.42;;;26.80;99.90;;;;;;4994294;28;20278;-37
2022/06/24 10:55:16;;;;;;;4.05;1.58;;;27.10;99.90;;;;;;4977570;28;20191;-38
2022/06/24 10:57:54;;;;;;;3.55;1.40;;;26.90;99.90;;;;;;5002698;28;20217;-36
2022/06/24 11:00:25;;;;;;;2.58;1.83;;;26.80;99.90;;;;;;5014823;28;20646;-37
2022/06/24 11:03:04;;;;;;;3.83;1.70;;;26.70;99.90;;;;;;5031986;28;20206;-38
2022/06/24 11:05:33;;;;;;;1.60;1.40;;;26.60;99.90;;;;;;5013990;28;20174;-39
2022/06/24 11:08:01;;;;;;;2.08;1.65;;;26.60;99.90;;;;;;4997480;28;20256;-36
2022/06/24 11:10:31;;;;;;;4.32;1.80;;;26.80;99.90;;;;;;4984748;28;20241;-39
2022/06/24 11:13:02;;;;;;;4.10;1.42;;;26.80;99.90;;;;;;4978333;28;20194;-36
2022/06/24 11:15:49;;;;;;;1.20;1.10;;;26.90;99.90;;;;;;4994140;28;20190;-37
2022/06/24 11:18:19;;;;;;;2.65;1.20;;;26.90;99.90;;;;;;4977957;28;20219;-38
2022/06/24 11:20:51;;;;;;;1.83;1.33;;;27.00;99.90;;;;;;4994204;28;20217;-36
2022/06/24 11:23:19;;;;;;;5.28;1.60;;;27.00;99.90;;;;;;4993783;28;20186;-36
2022/06/24 11:25:51;;;;;;;2.83;1.33;;;27.00;99.90;;;;;;4994029;28;20209;-37
2022/06/24 11:28:27;;;;;;;3.80;1.55;;;27.00;99.90;;;;;;4993990;28;20240;-37
2022/06/24 11:30:55;;;;;;;2.53;1.50;;;27.00;99.90;;;;;;4977710;28;20189;-36
2022/06/24 11:33:22;;;;;;;12.82;2.50;;;27.00;99.90;;;;;;4993925;28;20183;-38
2022/06/24 11:35:50;;;;;;;4.95;1.48;;;27.10;99.90;;;;;;4992960;28;20202;-37
2022/06/24 11:38:19;;;;;;;2.10;1.38;;;27.20;99.90;;;;;;4993482;28;20218;-36
2022/06/24 11:40:46;;;;;;;1.83;1.30;;;27.20;99.90;;;;;;4993481;28;20172;-38
2022/06/24 11:43:14;;;;;;;1.65;1.30;;;27.50;99.90;;;;;;4978198;28;20229;-42
2022/06/24 11:45:42;;;;;;;2.35;1.60;;;27.80;99.90;;;;;;4994666;28;20179;-37
2022/06/24 11:48:34;;;;;;;2.45;1.55;;;27.80;99.90;;;;;;5009320;28;20199;-36
2022/06/24 11:51:02;;;;;;;3.20;1.65;;;27.60;99.90;;;;;;4975945;28;20257;-37
2022/06/24 11:53:27;;;;;;;2.25;1.40;;;27.80;99.90;;;;;;4993675;28;20187;-37
2022/06/24 11:55:55;;;;;;;2.05;1.52;;;28.00;99.90;;;;;;5010748;28;20219;-37
2022/06/24 11:58:22;;;;;;;3.20;1.35;;;28.10;99.90;;;;;;4993392;28;20226;-40
2022/06/24 12:00:52;;;;;;;1.33;1.23;;;27.80;99.90;;;;;;4993120;28;20179;-38
2022/06/24 12:03:21;;;;;;;1.58;1.40;;;28.00;99.90;;;;;;4993406;28;20167;-38
2022/06/24 12:05:50;;;;;;;1.92;1.40;;;28.10;99.90;;;;;;4976420;28;20306;-39
2022/06/24 12:08:17;;;;;;;1.88;1.40;;;28.40;99.90;;;;;;4992824;28;20203;-38
2022/06/24 12:10:53;;;;;;;3.75;1.65;;;28.50;99.90;;;;;;5010299;28;20183;-39
2022/06/24 12:13:29;;;;;;;1.83;1.40;;;28.70;99.90;;;;;;4993200;28;20179;-37
2022/06/24 12:15:56;;;;;;;1.52;1.33;;;29.10;99.90;;;;;;4993072;28;20256;-40
2022/06/24 12:18:24;;;;;;;1.77;1.15;;;29.10;99.90;;;;;;4976964;28;20282;-38
2022/06/24 12:20:58;;;;;;;1.30;1.17;;;29.40;99.90;;;;;;4995464;28;20175;-37
2022/06/24 12:23:25;;;;;;;1.52;1.33;;;29.70;99.90;;;;;;4997066;28;20171;-39
2022/06/24 12:25:52;;;;;;;1.50;1.40;;;29.40;99.90;;;;;;4997158;28;20237;-39
2022/06/24 12:28:23;;;;;;;1.38;1.27;;;29.50;99.90;;;;;;5000072;28;20206;-37
2022/06/24 12:30:57;;;;;;;2.25;1.35;;;29.20;99.90;;;;;;4999671;28;20190;-37
2022/06/24 12:33:26;;;;;;;2.45;1.25;;;28.90;99.90;;;;;;4994665;28;20175;-39
2022/06/24 12:36:10;;;;;;;3.88;1.35;;;28.60;99.90;;;;;;4998669;28;20187;-37
2022/06/24 12:38:58;;;;;;;1.98;1.20;;;28.30;99.90;;;;;;4998508;28;20190;-37
2022/06/24 12:41:27;;;;;;;2.08;1.35;;;27.80;99.90;;;;;;4996785;28;20222;-37
2022/06/24 12:44:03;;;;;;;1.70;1.20;;;27.50;99.90;;;;;;4995607;28;20206;-38
2022/06/24 12:46:35;;;;;;;1.95;1.30;;;27.20;99.90;;;;;;4980260;28;20261;-38
2022/06/24 12:51:59;;;;;;;2.47;1.20;;;26.90;99.90;;;;;;5002302;28;20265;-38
2022/06/24 12:54:25;;;;;;;2.75;1.23;;;26.80;99.90;;;;;;5023075;28;20266;-37
2022/06/24 12:56:51;;;;;;;1.90;1.30;;;26.60;99.90;;;;;;4987611;28;20207;-38
2022/06/24 12:59:17;;;;;;;2.72;1.35;;;26.60;99.90;;;;;;5014332;28;20195;-37
2022/06/24 13:01:45;;;;;;;2.58;1.60;;;26.40;99.90;;;;;;4980602;28;20278;-37
2022/06/24 13:04:13;;;;;;;4.50;1.60;;;26.30;99.90;;;;;;4995762;28;20179;-38
2022/06/24 13:06:40;;;;;;;2.35;1.60;;;26.20;99.90;;;;;;4995705;28;20311;-43
2022/06/24 13:09:07;;;;;;;2.10;1.40;;;26.20;99.90;;;;;;4981407;28;20203;-38
2022/06/24 13:11:34;;;;;;;3.22;1.60;;;26.20;99.90;;;;;;4998051;28;20701;-37
2022/06/24 13:14:02;;;;;;;2.38;1.40;;;26.20;99.90;;;;;;4981671;28;20238;-37